Lady Elliot Island, Australia
Current Conditions -  °F | °C
As of 3:00 AM on Saturday 01 Nov 2014 (Local Time) from YBUD Reporting Station
Overcast Overcast  
Wind Chill: 70°   Ceiling: 3500
Heat Index: 70°   Visibility: 6mi
Dew Point: 66°   Wind: 2mph
Humidity: 88%   Direction: 310°NW
Pressure: 29.94"   Gusts: NA
Location:  24.1°S, 152.7°E
Report Text: YBUD 311700Z AUTO 31002KT 9999 // SCT017 SCT021 OVC035 21/19 Q1014
Loading
Personal Weather Stations






























Interactive Weather Map
Tropical Storm Tracking
New forecast layout! Learn more

10-Day Weather Forecast

Advertisements
Track Severe Weather on mobile